Main page
METAR-TAF:

METAR-TAF

Airports :

Helsinki Airport

Helsinki, Finland

latitude: 60-19N, longitude: 024-58E, elevation: 51 m

Current weather observation

The report was made 15 minutes ago, at 16:50 UTC
Wind 7 kt from the West
Temperature 10°C
Humidity 100%
Pressure 1013 hPa
Visibility 10 km or more
Scattered clouds at a height of 1000 ft

METAR: EFHK 181650Z 26007KT 9999 SCT010 10/10 Q1013 NOSIG

Time: 20:05 (17:05 UTC)

Forecast

The report was made 2 hours and 36 minutes ago, at 14:29 UTC
Forecast valid from 18 at 15 UTC to 19 at 15 UTC
Wind 9 kt from the Southwest
Visibility 10 km or more
Broken clouds at a height of 700 ft
Becoming
from 18 at 15 UTC to 18 at 17 UTC
Visibility 10 km or more
no clouds below 1500 m and no cumulonimbus
Temporary
from 18 at 22 UTC to 19 at 07 UTC
Visibility: 3000 m
patches of fog

TAF: EFHK 181429Z 1815/1915 22009KT 9999 BKN007 BECMG 1815/1817 CAVOK TEMPO 1822/1907 3000 BCFG

Weather observations and forecasts of more than 4000 airports (METAR and TAF reports).

The available stations are represented by yellow and red dots on the map.

Hover mouse over dot to see the name of the station.

Then click to see weather observations and forecasts.

To change the map : click on the green buttons with a black cross to zoom in, on the green button with a dash to zoom out, or on the green arrows for adjacent maps.


METAR-TAF: